createdAt,value
2022-08-08T00:00:54.154Z,21.86
2022-08-08T00:02:54.965Z,21.78
2022-08-08T00:06:00.832Z,21.66
2022-08-08T00:08:27.282Z,21.60
2022-08-08T00:11:00.596Z,21.49
2022-08-08T00:14:16.349Z,21.46
2022-08-08T00:16:41.211Z,21.45
2022-08-08T00:19:17.408Z,21.57
2022-08-08T00:21:50.787Z,21.67
2022-08-08T00:24:24.070Z,21.75
2022-08-08T00:27:05.916Z,21.85
2022-08-08T00:29:46.993Z,21.90
2022-08-08T00:32:35.080Z,21.91
2022-08-08T00:35:37.476Z,21.90
2022-08-08T00:38:31.345Z,21.83
2022-08-08T00:41:55.160Z,21.80
2022-08-08T00:45:21.692Z,21.86
2022-08-08T00:48:58.999Z,21.90
2022-08-08T00:51:59.235Z,21.93
2022-08-08T00:54:51.272Z,21.97
2022-08-08T00:57:57.222Z,21.91
2022-08-08T01:00:28.357Z,21.94
2022-08-08T01:04:01.425Z,21.91
2022-08-08T01:07:06.028Z,21.87
2022-08-08T01:10:16.987Z,21.86
2022-08-08T01:13:43.915Z,21.82
2022-08-08T01:17:34.911Z,21.70
2022-08-08T01:20:36.829Z,21.53
2022-08-08T01:24:06.467Z,21.40
2022-08-08T01:27:07.002Z,21.14
2022-08-08T01:29:58.767Z,20.91
2022-08-08T01:33:33.883Z,20.82
2022-08-08T01:36:55.450Z,20.75
2022-08-08T01:39:42.430Z,20.70
2022-08-08T01:42:21.243Z,20.70
2022-08-08T01:45:17.801Z,20.76
2022-08-08T01:48:23.399Z,20.72
2022-08-08T01:51:29.844Z,20.80
2022-08-08T01:55:25.903Z,20.95
2022-08-08T01:57:21.688Z,21.09
2022-08-08T02:00:21.108Z,21.07
2022-08-08T02:03:55.178Z,20.97
2022-08-08T02:06:32.747Z,20.89
2022-08-08T02:10:02.421Z,20.90
2022-08-08T02:12:21.277Z,20.96
2022-08-08T02:14:58.835Z,21.05
2022-08-08T02:17:43.268Z,21.13
2022-08-08T02:21:01.590Z,21.26
2022-08-08T02:23:22.685Z,21.38
2022-08-08T02:26:00.696Z,21.43
2022-08-08T02:28:48.323Z,21.45
2022-08-08T02:31:58.224Z,21.46
2022-08-08T02:35:08.507Z,21.41
2022-08-08T02:37:57.150Z,21.42
2022-08-08T02:40:44.999Z,21.42
2022-08-08T02:44:37.408Z,21.44
2022-08-08T02:47:09.458Z,21.40
2022-08-08T02:50:18.068Z,21.32
2022-08-08T02:53:11.129Z,21.29
2022-08-08T02:56:10.862Z,21.29
2022-08-08T02:59:37.304Z,21.30
2022-08-08T03:02:50.525Z,21.34
2022-08-08T03:06:34.436Z,21.37
2022-08-08T03:09:55.417Z,21.40
2022-08-08T03:13:07.428Z,21.41
2022-08-08T03:16:35.277Z,21.39
2022-08-08T03:19:50.815Z,21.42
2022-08-08T03:22:38.908Z,21.45
2022-08-08T03:25:14.771Z,21.43
2022-08-08T03:27:56.718Z,21.38
2022-08-08T03:30:27.272Z,21.27
2022-08-08T03:33:55.078Z,21.04
2022-08-08T03:36:03.780Z,20.94
2022-08-08T03:38:57.367Z,20.96
2022-08-08T03:42:28.821Z,20.78
2022-08-08T03:44:25.213Z,20.90
2022-08-08T03:46:54.199Z,20.98
2022-08-08T03:49:57.709Z,21.04
2022-08-08T03:52:16.220Z,21.01
2022-08-08T03:55:02.104Z,20.94
2022-08-08T03:58:32.141Z,20.87
2022-08-08T04:00:30.684Z,20.90
2022-08-08T04:03:11.600Z,20.91
2022-08-08T04:05:49.738Z,20.81
2022-08-08T04:08:33.514Z,20.91
2022-08-08T04:11:11.407Z,21.02
2022-08-08T04:14:03.241Z,21.02
2022-08-08T04:16:38.894Z,20.92
2022-08-08T04:19:25.496Z,20.94
2022-08-08T04:22:00.079Z,20.87
2022-08-08T04:24:34.366Z,20.84
2022-08-08T04:27:10.350Z,20.74
2022-08-08T04:30:00.837Z,20.66
2022-08-08T04:32:36.958Z,20.71
2022-08-08T04:35:13.498Z,20.73
2022-08-08T04:37:43.342Z,20.78
2022-08-08T04:40:18.388Z,20.72
2022-08-08T04:42:57.379Z,20.83
2022-08-08T04:45:31.032Z,21.02
2022-08-08T04:48:02.404Z,21.17
2022-08-08T04:50:38.404Z,21.21
2022-08-08T04:53:14.294Z,21.24
2022-08-08T04:56:01.935Z,21.23
2022-08-08T04:58:34.133Z,21.28
2022-08-08T05:01:05.808Z,21.35
2022-08-08T05:04:11.359Z,21.42
2022-08-08T05:06:29.087Z,21.48
2022-08-08T05:09:02.896Z,21.50
2022-08-08T05:11:39.381Z,21.42
2022-08-08T05:14:11.971Z,21.32
2022-08-08T05:16:52.484Z,21.22
2022-08-08T05:20:10.050Z,21.21
2022-08-08T05:22:18.180Z,21.16
2022-08-08T05:24:49.774Z,21.10
2022-08-08T05:27:21.950Z,21.11
2022-08-08T05:29:53.032Z,21.19
2022-08-08T05:32:29.940Z,21.28
2022-08-08T05:35:05.268Z,21.30
2022-08-08T05:37:52.299Z,21.30
2022-08-08T05:40:29.193Z,21.43
2022-08-08T05:43:38.824Z,21.49
2022-08-08T05:46:03.698Z,21.57
2022-08-08T05:48:37.752Z,21.62
2022-08-08T05:51:13.325Z,21.67
2022-08-08T05:54:25.516Z,21.70
2022-08-08T05:56:42.630Z,21.70
2022-08-08T05:59:57.677Z,21.72
2022-08-08T06:02:38.759Z,21.73
2022-08-08T06:05:34.550Z,21.74
2022-08-08T06:08:09.957Z,21.67
2022-08-08T06:10:56.440Z,21.64
2022-08-08T06:13:30.128Z,21.72
2022-08-08T06:16:04.709Z,21.81
2022-08-08T06:18:55.097Z,21.97
2022-08-08T06:21:28.357Z,22.11
2022-08-08T06:24:27.046Z,22.26
2022-08-08T06:27:05.205Z,22.32
2022-08-08T06:29:59.236Z,22.32
2022-08-08T06:32:30.694Z,22.33
2022-08-08T06:36:03.939Z,22.32
2022-08-08T06:38:04.953Z,22.25
2022-08-08T06:40:39.510Z,22.18
2022-08-08T06:43:30.523Z,22.19
2022-08-08T06:46:08.637Z,22.18
2022-08-08T06:48:38.333Z,22.14
2022-08-08T06:51:08.627Z,22.15
2022-08-08T06:53:51.241Z,22.18
2022-08-08T06:56:26.326Z,22.24
2022-08-08T06:58:55.036Z,22.36
2022-08-08T07:02:27.856Z,22.46
2022-08-08T07:04:40.394Z,22.39
2022-08-08T07:07:13.857Z,22.47
2022-08-08T07:09:59.939Z,22.57
2022-08-08T07:12:41.196Z,22.70
2022-08-08T07:15:23.341Z,22.73
2022-08-08T07:18:35.091Z,22.77
2022-08-08T07:21:02.114Z,22.77
2022-08-08T07:24:01.726Z,22.83
2022-08-08T07:26:35.270Z,22.79
2022-08-08T07:29:08.148Z,22.80
2022-08-08T07:31:48.991Z,22.86
2022-08-08T07:34:26.791Z,22.91
2022-08-08T07:37:11.977Z,22.96
2022-08-08T07:39:56.039Z,22.95
2022-08-08T07:42:34.415Z,22.97
2022-08-08T07:45:06.577Z,23.03
2022-08-08T07:47:39.762Z,23.12
2022-08-08T07:50:23.406Z,23.19
2022-08-08T07:53:00.606Z,23.32
2022-08-08T07:55:36.458Z,23.42
2022-08-08T07:58:20.953Z,23.51
2022-08-08T08:00:53.194Z,23.55
2022-08-08T08:03:43.349Z,23.57
2022-08-08T08:06:16.420Z,23.56
2022-08-08T08:08:52.482Z,23.57
2022-08-08T08:11:33.581Z,23.64
2022-08-08T08:14:08.241Z,23.72
2022-08-08T08:16:48.767Z,23.76
2022-08-08T08:19:22.749Z,23.80
2022-08-08T08:21:57.790Z,23.89
2022-08-08T08:24:43.028Z,24.04
2022-08-08T08:27:14.724Z,24.17
2022-08-08T08:29:51.016Z,24.21
2022-08-08T08:32:31.597Z,24.18
2022-08-08T08:35:06.707Z,24.17
2022-08-08T08:37:59.143Z,24.23
2022-08-08T08:40:25.410Z,24.22
2022-08-08T08:42:57.021Z,24.27
2022-08-08T08:45:27.803Z,24.28
2022-08-08T08:48:01.510Z,24.36
2022-08-08T08:50:36.343Z,24.42
2022-08-08T08:53:27.624Z,24.50
2022-08-08T08:56:09.319Z,24.56
2022-08-08T08:58:50.100Z,24.59
2022-08-08T09:01:36.052Z,24.62
2022-08-08T09:04:31.806Z,24.63
2022-08-08T09:07:00.151Z,24.68
2022-08-08T09:09:39.733Z,24.71
2022-08-08T09:12:23.627Z,24.75
2022-08-08T09:14:56.220Z,24.78
2022-08-08T09:17:41.547Z,24.80
2022-08-08T09:22:04.770Z,24.84
2022-08-08T09:23:03.953Z,24.90
2022-08-08T09:25:54.464Z,24.96
2022-08-08T09:28:37.244Z,25.02
2022-08-08T09:31:13.519Z,25.02
2022-08-08T09:34:28.423Z,25.11
2022-08-08T09:37:23.696Z,25.22
2022-08-08T09:39:36.902Z,25.25
2022-08-08T09:42:20.740Z,25.34
2022-08-08T09:45:04.180Z,25.48
2022-08-08T09:48:09.809Z,25.60
2022-08-08T09:50:32.423Z,25.69
2022-08-08T09:53:23.685Z,25.78
2022-08-08T09:56:04.794Z,25.84
2022-08-08T09:58:40.621Z,25.93
2022-08-08T10:01:14.625Z,26.02
2022-08-08T10:03:55.808Z,26.06
2022-08-08T10:06:29.414Z,26.05
2022-08-08T10:08:57.891Z,25.99
2022-08-08T10:12:28.273Z,25.85
2022-08-08T10:14:28.595Z,25.70
2022-08-08T10:17:38.667Z,25.67
2022-08-08T10:19:59.954Z,25.64
2022-08-08T10:22:32.009Z,25.74
2022-08-08T10:25:05.615Z,25.87
2022-08-08T10:27:43.325Z,26.01
2022-08-08T10:30:16.749Z,26.15
2022-08-08T10:33:01.591Z,26.32
2022-08-08T10:36:19.993Z,26.58
2022-08-08T10:38:21.596Z,26.72
2022-08-08T10:40:53.896Z,26.76
2022-08-08T10:43:23.112Z,26.81
2022-08-08T10:45:57.112Z,26.91
2022-08-08T10:48:37.279Z,26.99
2022-08-08T10:51:21.419Z,26.94
2022-08-08T10:53:57.843Z,26.90
2022-08-08T10:56:27.355Z,26.92
2022-08-08T10:59:00.321Z,26.94
2022-08-08T11:01:33.512Z,26.98
2022-08-08T11:04:04.828Z,27.06
2022-08-08T11:06:34.953Z,27.13
2022-08-08T11:09:15.347Z,27.24
2022-08-08T11:12:06.466Z,27.41
2022-08-08T11:14:49.598Z,27.61
2022-08-08T11:18:00.148Z,27.75
2022-08-08T11:20:11.008Z,27.88
2022-08-08T11:22:41.894Z,27.96
2022-08-08T11:25:16.288Z,28.06
2022-08-08T11:27:48.904Z,28.18
2022-08-08T11:30:24.583Z,28.15
2022-08-08T11:32:58.279Z,28.10
2022-08-08T11:35:38.490Z,27.97
2022-08-08T11:38:35.797Z,27.85
2022-08-08T11:41:01.095Z,27.77
2022-08-08T11:43:39.467Z,27.77
2022-08-08T11:46:14.003Z,27.81
2022-08-08T11:48:47.978Z,27.76
2022-08-08T11:51:38.518Z,27.68
2022-08-08T11:54:26.777Z,27.55
2022-08-08T11:56:57.942Z,27.52
2022-08-08T11:59:58.303Z,27.48
2022-08-08T12:02:34.151Z,27.43
2022-08-08T12:05:07.484Z,27.32
2022-08-08T12:07:46.881Z,27.17
2022-08-08T12:10:20.716Z,27.02
2022-08-08T12:12:54.566Z,26.87
2022-08-08T12:15:28.769Z,26.77
2022-08-08T12:17:56.800Z,26.72
2022-08-08T12:20:25.487Z,26.66
2022-08-08T12:22:57.048Z,26.50
2022-08-08T12:25:29.656Z,26.48
2022-08-08T12:28:15.882Z,26.46
2022-08-08T12:30:47.941Z,26.48
2022-08-08T12:33:19.794Z,26.50
2022-08-08T12:35:52.861Z,26.52
2022-08-08T12:38:30.379Z,26.45
2022-08-08T12:41:05.754Z,26.29
2022-08-08T12:44:00.528Z,26.11
2022-08-08T12:46:29.410Z,26.03
2022-08-08T12:49:25.576Z,26.00
2022-08-08T12:51:59.046Z,25.89
2022-08-08T12:54:33.374Z,25.82
2022-08-08T12:57:15.161Z,25.73
2022-08-08T13:00:04.809Z,25.72
2022-08-08T13:02:51.386Z,25.76
2022-08-08T13:05:26.901Z,25.79
2022-08-08T13:08:16.795Z,25.77
2022-08-08T13:10:56.303Z,25.67
2022-08-08T13:13:35.340Z,25.37
2022-08-08T13:16:20.588Z,25.19
2022-08-08T13:18:58.205Z,25.08
2022-08-08T13:21:55.421Z,24.94
2022-08-08T13:24:18.608Z,24.74
2022-08-08T13:27:10.706Z,24.66
2022-08-08T13:29:50.679Z,24.68
2022-08-08T13:32:25.249Z,24.71
2022-08-08T13:34:57.670Z,24.68
2022-08-08T13:38:05.776Z,24.70
2022-08-08T13:40:17.777Z,24.68
2022-08-08T13:42:55.116Z,24.70
2022-08-08T13:45:24.037Z,24.66
2022-08-08T13:47:58.937Z,24.64
2022-08-08T13:50:35.329Z,24.64
2022-08-08T13:53:22.656Z,24.56
2022-08-08T13:55:59.008Z,24.54
2022-08-08T13:58:29.428Z,24.59
2022-08-08T14:00:57.812Z,24.59
2022-08-08T14:03:52.780Z,24.65
2022-08-08T14:06:20.572Z,24.62
2022-08-08T14:09:25.193Z,24.62
2022-08-08T14:11:50.193Z,24.56
2022-08-08T14:14:21.231Z,24.45
2022-08-08T14:16:55.450Z,24.55
2022-08-08T14:19:57.577Z,24.65
2022-08-08T14:22:26.359Z,24.81
2022-08-08T14:24:59.751Z,24.99
2022-08-08T14:27:30.784Z,25.13
2022-08-08T14:30:04.445Z,25.22
2022-08-08T14:32:47.676Z,25.21
2022-08-08T14:35:28.344Z,25.21
2022-08-08T14:38:09.437Z,25.26
2022-08-08T14:40:59.334Z,25.28
2022-08-08T14:44:02.850Z,25.29
2022-08-08T14:46:18.517Z,25.24
2022-08-08T14:49:09.398Z,25.06
2022-08-08T14:51:53.093Z,24.93
2022-08-08T14:54:28.483Z,24.82
2022-08-08T14:56:57.976Z,24.69
2022-08-08T14:59:43.970Z,24.63
2022-08-08T15:02:15.641Z,24.55
2022-08-08T15:04:45.464Z,24.51
2022-08-08T15:07:22.222Z,24.51
2022-08-08T15:09:52.699Z,24.52
2022-08-08T15:12:27.461Z,24.57
2022-08-08T15:14:56.206Z,24.62
2022-08-08T15:17:24.783Z,24.54
2022-08-08T15:19:54.560Z,24.41
2022-08-08T15:22:25.397Z,24.33
2022-08-08T15:24:54.413Z,24.24
2022-08-08T15:28:04.035Z,24.11
2022-08-08T15:30:14.705Z,24.03
2022-08-08T15:32:43.239Z,24.02
2022-08-08T15:35:11.830Z,24.09
2022-08-08T15:37:45.706Z,24.17
2022-08-08T15:40:15.267Z,24.23
2022-08-08T15:42:47.460Z,24.22
2022-08-08T15:45:17.501Z,24.26
2022-08-08T15:48:15.698Z,24.32
2022-08-08T15:50:56.804Z,24.48
2022-08-08T15:53:40.399Z,24.64
2022-08-08T15:56:16.446Z,24.79
2022-08-08T15:58:49.341Z,24.90
2022-08-08T16:01:21.105Z,24.95
2022-08-08T16:03:51.969Z,24.93
2022-08-08T16:06:27.404Z,24.86
2022-08-08T16:09:02.496Z,24.74
2022-08-08T16:13:12.068Z,24.68
2022-08-08T16:14:36.408Z,24.76
2022-08-08T16:17:06.110Z,24.71
2022-08-08T16:20:00.320Z,24.71
2022-08-08T16:22:30.288Z,24.68
2022-08-08T16:25:11.454Z,24.75
2022-08-08T16:27:43.081Z,24.81
2022-08-08T16:30:36.220Z,24.89
2022-08-08T16:33:04.801Z,25.00
2022-08-08T16:35:33.863Z,24.96
2022-08-08T16:38:01.783Z,25.04
2022-08-08T16:40:32.879Z,25.04
2022-08-08T16:43:00.784Z,25.03
2022-08-08T16:46:37.397Z,25.01
2022-08-08T16:48:17.077Z,25.05
2022-08-08T16:50:48.017Z,25.05
2022-08-08T16:55:00.272Z,25.03
2022-08-08T16:56:08.853Z,25.00
2022-08-08T16:58:42.599Z,24.97
2022-08-08T17:01:12.958Z,24.86
2022-08-08T17:03:59.985Z,24.82
2022-08-08T17:06:36.911Z,24.74
2022-08-08T17:09:06.503Z,24.67
2022-08-08T17:11:39.430Z,24.58
2022-08-08T17:14:19.585Z,24.52
2022-08-08T17:16:57.689Z,24.42
2022-08-08T17:19:29.110Z,24.36
2022-08-08T17:21:57.965Z,24.27
2022-08-08T17:24:30.535Z,24.22
2022-08-08T17:27:01.781Z,24.15
2022-08-08T17:29:33.671Z,24.10
2022-08-08T17:32:02.605Z,24.05
2022-08-08T17:34:53.417Z,24.06
2022-08-08T17:37:19.448Z,23.99
2022-08-08T17:40:11.065Z,23.90
2022-08-08T17:42:36.998Z,23.82
2022-08-08T17:45:06.522Z,23.77
2022-08-08T17:47:40.512Z,23.74
2022-08-08T17:50:10.864Z,23.67
2022-08-08T17:52:43.198Z,23.59
2022-08-08T17:56:06.022Z,23.59
2022-08-08T17:58:04.864Z,23.57
2022-08-08T18:00:32.816Z,23.53
2022-08-08T18:03:09.363Z,23.44
2022-08-08T18:05:48.588Z,23.35
2022-08-08T18:08:25.186Z,23.38
2022-08-08T18:11:11.547Z,23.38
2022-08-08T18:13:45.233Z,23.34
2022-08-08T18:16:20.184Z,23.31
2022-08-08T18:18:53.110Z,23.33
2022-08-08T18:21:34.446Z,23.29
2022-08-08T18:24:04.240Z,23.24
2022-08-08T18:26:33.777Z,23.12
2022-08-08T18:29:05.984Z,23.18
2022-08-08T18:31:33.968Z,23.13
2022-08-08T18:34:25.188Z,23.11
2022-08-08T18:36:50.570Z,23.12
2022-08-08T18:39:28.573Z,23.10
2022-08-08T18:42:03.019Z,23.06
2022-08-08T18:44:36.003Z,23.00
2022-08-08T18:47:05.253Z,22.96
2022-08-08T18:49:57.979Z,22.98
2022-08-08T18:52:23.458Z,22.97
2022-08-08T18:55:00.203Z,22.95
2022-08-08T18:57:41.231Z,22.89
2022-08-08T19:00:15.571Z,22.83
2022-08-08T19:02:55.746Z,22.77
2022-08-08T19:05:32.499Z,22.74
2022-08-08T19:08:25.473Z,22.72
2022-08-08T19:10:59.320Z,22.72
2022-08-08T19:13:52.456Z,22.73
2022-08-08T19:16:19.925Z,22.70
2022-08-08T19:18:57.426Z,22.70
2022-08-08T19:21:33.531Z,22.71
2022-08-08T19:24:05.147Z,22.70
2022-08-08T19:26:34.976Z,22.68
2022-08-08T19:29:03.017Z,22.58
2022-08-08T19:31:34.925Z,22.50
2022-08-08T19:34:30.193Z,22.40
2022-08-08T19:36:55.213Z,22.36
2022-08-08T19:39:26.337Z,22.32
2022-08-08T19:42:03.111Z,22.30
2022-08-08T19:44:43.400Z,22.32
2022-08-08T19:47:16.264Z,22.31
2022-08-08T19:50:00.516Z,22.46
2022-08-08T19:52:35.303Z,22.53
2022-08-08T19:55:08.893Z,22.57
2022-08-08T19:57:37.889Z,22.58
2022-08-08T20:00:11.616Z,22.60
2022-08-08T20:02:58.320Z,22.57
2022-08-08T20:06:14.186Z,22.57
2022-08-08T20:08:30.227Z,22.55
2022-08-08T20:11:03.112Z,22.51
2022-08-08T20:14:31.545Z,22.47
2022-08-08T20:16:19.957Z,22.44
2022-08-08T20:18:53.897Z,22.44
2022-08-08T20:21:25.582Z,22.38
2022-08-08T20:23:58.243Z,22.26
2022-08-08T20:26:30.228Z,22.15
2022-08-08T20:29:02.040Z,22.09
2022-08-08T20:32:07.389Z,22.11
2022-08-08T20:34:30.175Z,22.05
2022-08-08T20:37:00.363Z,22.04
2022-08-08T20:39:39.242Z,22.01
2022-08-08T20:42:16.867Z,22.04
2022-08-08T20:44:44.777Z,22.10
2022-08-08T20:47:22.887Z,22.10
2022-08-08T20:49:54.526Z,22.16
2022-08-08T20:52:27.515Z,22.17
2022-08-08T20:54:55.621Z,22.08
2022-08-08T20:57:27.139Z,22.17
2022-08-08T20:59:57.308Z,22.16
2022-08-08T21:02:27.515Z,22.13
2022-08-08T21:05:01.301Z,22.09
2022-08-08T21:07:47.328Z,22.03
2022-08-08T21:10:20.840Z,21.99
2022-08-08T21:12:54.197Z,21.96
2022-08-08T21:16:04.908Z,21.91
2022-08-08T21:18:12.142Z,21.86
2022-08-08T21:20:43.168Z,21.84
2022-08-08T21:23:18.676Z,21.83
2022-08-08T21:25:54.829Z,21.83
2022-08-08T21:28:35.562Z,21.83
2022-08-08T21:31:05.805Z,21.85
2022-08-08T21:33:50.367Z,21.85
2022-08-08T21:36:28.896Z,21.85
2022-08-08T21:38:57.987Z,21.88
2022-08-08T21:41:38.656Z,21.91
2022-08-08T21:44:14.683Z,21.90
2022-08-08T21:48:05.363Z,21.82
2022-08-08T21:49:33.413Z,21.74
2022-08-08T21:54:31.086Z,21.67
2022-08-08T21:54:53.813Z,21.62
2022-08-08T21:57:43.104Z,21.59
2022-08-08T22:00:26.199Z,21.60
2022-08-08T22:02:54.310Z,21.59
2022-08-08T22:05:22.993Z,21.59
2022-08-08T22:07:52.320Z,21.57
2022-08-08T22:10:37.277Z,21.58
2022-08-08T22:13:17.814Z,21.61
2022-08-08T22:15:58.881Z,21.59
2022-08-08T22:18:30.926Z,21.54
2022-08-08T22:21:08.337Z,21.58
2022-08-08T22:23:50.542Z,21.55
2022-08-08T22:26:29.990Z,21.54
2022-08-08T22:29:14.755Z,21.54
2022-08-08T22:31:58.245Z,21.51
2022-08-08T22:34:30.436Z,21.47
2022-08-08T22:36:58.318Z,21.41
2022-08-08T22:39:45.682Z,21.33
2022-08-08T22:42:14.147Z,21.29
2022-08-08T22:44:52.396Z,21.23
2022-08-08T22:47:20.294Z,21.22
2022-08-08T22:49:53.715Z,21.16
2022-08-08T22:52:25.966Z,21.14
2022-08-08T22:55:04.479Z,21.14
2022-08-08T22:57:44.250Z,21.11
2022-08-08T23:00:18.165Z,21.13
2022-08-08T23:02:50.022Z,21.09
2022-08-08T23:05:21.495Z,21.07
2022-08-08T23:07:57.571Z,21.04
2022-08-08T23:10:28.320Z,20.89
2022-08-08T23:12:56.429Z,20.84
2022-08-08T23:16:38.623Z,20.74
2022-08-08T23:18:13.249Z,20.70
2022-08-08T23:20:43.359Z,20.70
2022-08-08T23:23:12.509Z,20.71
2022-08-08T23:25:47.805Z,20.71
2022-08-08T23:28:18.892Z,20.72
2022-08-08T23:30:47.911Z,20.53
2022-08-08T23:33:20.919Z,20.80
2022-08-08T23:36:08.614Z,20.84
2022-08-08T23:38:44.227Z,20.85
2022-08-08T23:41:24.921Z,20.88
2022-08-08T23:43:56.348Z,20.81
2022-08-08T23:49:05.194Z,20.77
2022-08-08T23:49:18.699Z,20.63
2022-08-08T23:52:04.726Z,20.63
2022-08-08T23:54:41.603Z,20.64
2022-08-08T23:57:15.197Z,20.65
